Latest Weather Observations for Cape Byron

IDN60801

Issued at 10:05 pm EDT Friday 28 November 2014 (issued every 30 minutes, with the page automatically refreshed every 10 minutes)

About weather observations | Map of weather stations | Latest weather observations for NSW | Other Formats
Station Details ID: 058216 Name: CAPE BYRON AWS Lat: -28.64 Lon: 153.64 Height: 95.0 m
Data from the previous 72 hours. | See also: Recent months at Cape Byron
Date/Time
EDT
Temp
°C
App
Temp
°C
Dew
Point
Rel
Hum
%
Delta-T
°C
Wind Press
QNH
hPa
Press
MSL
hPa
Rain
since 9 am
mm
Dir
 
Spd
km/h
Gust
km/h
Spd
kts
Gust
kts
28/10:00pm 21.1 18.6 16.1 73 3.0 E 24 33 13 18 1020.7 1020.3 1.0
28/09:30pm 21.2 19.6 16.4 74 2.9 E 20 30 11 16 1020.7 1020.3 1.0
28/09:00pm 21.3 18.3 16.7 75 2.8 E 28 39 15 21 1020.3 1019.9 1.0
28/08:30pm 21.2 18.3 16.0 72 3.1 E 26 37 14 20 1020.1 1019.7 1.0
28/08:00pm 21.1 17.2 16.5 75 2.8 E 32 41 17 22 1019.9 1019.5 1.0
28/07:30pm 20.8 16.5 16.8 78 2.4 E 35 43 19 23 1019.7 1019.3 1.0
28/07:00pm 20.9 18.0 17.1 79 2.3 E 28 43 15 23 1019.8 1019.4 1.0
28/06:30pm 21.5 18.5 17.7 79 2.4 E 30 37 16 20 1019.6 1019.2 0.6
28/06:00pm 21.0 16.5 17.4 80 2.2 E 37 44 20 24 1019.4 1019.0 0.6
28/05:30pm 20.4 17.3 17.6 84 1.7 E 30 35 16 19 1019.3 1018.9 0.6
28/05:00pm 20.5 19.9 17.5 83 1.8 E 17 20 9 11 1019.7 1019.3 0.2
28/04:30pm 21.0 19.0 17.4 80 2.2 E 24 35 13 19 1019.7 1019.3 0.2
28/04:07pm 22.9 17.6 16.4 67 4.0 ESE 39 44 21 24 1019.6 1019.2 0.0
28/04:00pm 24.4 22.9 16.4 61 4.9 E 19 24 10 13 1019.8 1019.4 0.0
28/03:30pm 24.2 22.3 15.7 59 5.2 E 20 28 11 15 1020.1 1019.7 0.0
28/03:00pm 25.2 21.9 16.1 57 5.6 E 28 32 15 17 1020.2 1019.8 0.0
28/02:30pm 25.0 21.4 15.3 55 5.9 E 28 35 15 19 1020.3 1019.9 0.0
28/02:00pm 25.3 20.8 15.3 54 6.0 E 33 37 18 20 1020.4 1020.0 0.0
28/01:30pm 24.1 19.9 16.1 61 4.9 E 33 43 18 23 1020.6 1020.2 0.0
28/01:00pm 25.3 21.1 17.2 61 5.0 E 35 43 19 23 1020.7 1020.3 0.0
28/12:30pm 24.6 19.6 16.1 59 5.2 E 37 44 20 24 1020.7 1020.3 0.0
28/12:00pm 24.3 19.0 16.3 61 4.9 E 39 46 21 25 1020.7 1020.3 0.0
28/11:30am 23.9 18.3 16.4 63 4.6 E 41 50 22 27 1020.7 1020.3 0.0
28/11:00am 22.3 16.2 16.3 69 3.6 E 43 50 23 27 1020.5 1020.1 0.0
28/10:30am 23.4 17.4 16.4 64 4.3 E 43 48 23 26 1020.5 1020.1 0.0
28/10:00am 22.8 17.0 16.1 66 4.1 E 41 46 22 25 1020.2 1019.8 0.0
28/09:30am 22.0 15.9 16.3 70 3.5 E 43 54 23 29 1020.1 1019.7 0.0
28/09:00am 21.6 15.2 16.8 74 2.9 E 46 56 25 30 1019.9 1019.5 13.8
28/08:30am 21.9 16.0 17.1 74 3.0 E 44 52 24 28 1019.9 1019.5 13.8
28/08:00am 22.0 16.8 17.4 75 2.8 E 41 52 22 28 1019.4 1019.0 13.8
28/07:30am 21.9 16.2 17.3 75 2.8 E 43 52 23 28 1019.2 1018.8 13.8
28/07:00am 21.9 16.2 17.7 77 2.6 E 44 54 24 29 1018.7 1018.3 13.8
28/06:30am 21.1 16.0 17.7 81 2.1 E 41 50 22 27 1018.5 1018.1 13.8
28/06:00am 20.7 15.7 17.9 84 1.7 ESE 41 50 22 27 1018.5 1018.1 13.8
28/05:58am 20.7 15.7 17.9 84 1.7 ESE 41 46 22 25 1018.4 1018.0 13.8
28/05:30am 20.4 16.7 17.0 81 2.1 SE 32 37 17 20 1018.4 1018.0 13.0
28/05:00am 21.6 17.2 17.6 78 2.5 ESE 37 43 20 23 1017.9 1017.5 12.6
28/04:30am 21.6 17.2 17.6 78 2.5 E 37 46 20 25 1017.6 1017.2 12.6
28/04:00am 21.7 16.4 17.3 76 2.7 ESE 41 48 22 26 1017.5 1017.1 12.6
28/03:30am 21.7 17.0 17.7 78 2.5 SE 39 48 21 26 1017.6 1017.2 12.6
28/03:00am 21.2 17.7 18.0 82 2.0 SE 33 43 18 23 1018.0 1017.6 12.6
28/02:30am 21.6 18.5 17.4 77 2.6 SE 30 41 16 22 1018.2 1017.8 12.6
28/02:00am 21.5 18.4 17.5 78 2.5 SE 30 37 16 20 1018.3 1017.9 12.6
28/01:30am 21.6 17.8 17.2 76 2.7 SE 33 43 18 23 1018.5 1018.1 12.6
28/01:00am 21.6 18.2 17.6 78 2.5 SE 32 44 17 24 1018.7 1018.3 12.6
28/12:30am 21.7 18.4 17.9 79 2.4 SE 32 44 17 24 1018.9 1018.5 12.6
28/12:00am 21.6 18.1 17.8 79 2.4 SE 33 44 18 24 1019.0 1018.6 12.6
 
Date/Time
EDT
Temp
°C
App
Temp
°C
Dew
Point
Rel
Hum
%
Delta-T
°C
Wind Press
QNH
hPa
Press
MSL
hPa
Rain
since 9 am
mm
Dir
 
Spd
km/h
Gust
km/h
Spd
kts
Gust
kts
27/11:30pm 21.5 18.8 18.5 83 1.9 SSE 30 39 16 21 1019.2 1018.8 12.6
27/11:00pm 21.2 18.2 18.6 85 1.6 SSE 32 44 17 24 1019.0 1018.6 12.6
27/10:30pm 21.0 17.1 19.5 91 1.0 SSE 39 44 21 24 1018.9 1018.5 12.6
27/10:00pm 20.8 18.6 19.6 93 0.8 SSE 30 39 16 21 1018.9 1018.5 12.6
27/09:30pm 20.2 17.8 19.0 93 0.8 S 30 37 16 20 1019.0 1018.6 12.2
27/09:00pm 21.2 20.6 19.8 92 0.9 SSW 22 26 12 14 1018.4 1018.0 2.8
27/08:30pm 21.2 21.0 19.8 92 0.9 S 20 24 11 13 1017.9 1017.5 2.8
27/08:00pm 21.2 22.0 19.8 92 0.9 SW 15 17 8 9 1017.7 1017.3 2.8
27/07:30pm 21.2 20.9 19.5 90 1.1 SSW 20 24 11 13 1017.9 1017.5 2.8
27/07:00pm 22.0 21.6 19.4 85 1.7 SSW 20 26 11 14 1017.5 1017.1 0.0
27/06:30pm 22.3 21.9 19.3 83 1.9 SW 20 26 11 14 1017.4 1017.0 0.0
27/06:00pm 22.1 21.3 19.3 84 1.8 SW 22 30 12 16 1016.9 1016.5 0.0
27/05:30pm 21.7 19.4 19.3 86 1.5 SSW 30 39 16 21 1016.1 1015.8 0.0
27/05:00pm 21.3 17.7 19.4 89 1.2 SSW 37 46 20 25 1015.9 1015.6 0.0
27/04:30pm 21.2 18.0 19.5 90 1.1 SSW 35 39 19 21 1015.6 1015.3 0.0
27/04:00pm 21.6 19.7 19.3 87 1.5 S 28 32 15 17 1015.6 1015.3 0.0
27/03:30pm 22.0 20.5 19.4 85 1.7 S 26 30 14 16 1015.6 1015.3 0.0
27/03:00pm 22.1 20.6 19.5 85 1.7 S 26 32 14 17 1015.9 1015.6 0.0
27/02:30pm 22.4 19.7 19.6 84 1.8 S 33 37 18 20 1015.8 1015.5 0.0
27/02:00pm 22.7 20.3 19.9 84 1.8 S 32 37 17 20 1016.0 1015.7 0.0
27/01:30pm 22.1 19.9 19.6 86 1.6 S 30 37 16 20 1016.1 1015.8 0.0
27/01:00pm 22.2 20.0 18.8 81 2.1 S 28 33 15 18 1016.4 1016.0 0.0
27/12:30pm 26.8 28.6 21.1 71 3.8 NE 13 19 7 10 1016.1 1015.8 0.0
27/12:00pm 26.1 27.2 19.7 68 4.2 NNE 13 20 7 11 1016.1 1015.8 0.0
27/11:30am 26.1 27.6 19.7 68 4.2 NNE 11 19 6 10 1016.5 1016.1 0.0
27/11:00am 25.4 26.6 19.8 71 3.6 NNE 13 19 7 10 1016.6 1016.2 0.0
27/10:30am 25.4 27.2 20.4 74 3.3 N 11 19 6 10 1016.9 1016.5 0.0
27/10:00am 24.6 26.5 19.7 74 3.2 N 9 15 5 8 1016.9 1016.5 0.0
27/09:30am 23.6 24.9 19.3 77 2.8 N 11 17 6 9 1016.9 1016.5 0.0
27/09:00am 22.8 24.8 20.0 84 1.8 N 9 13 5 7 1017.0 1016.6 5.0
27/08:30am 21.8 23.7 19.7 88 1.3 N 9 13 5 7 1017.2 1016.8 5.0
27/08:00am 21.8 23.9 20.1 90 1.1 N 9 11 5 6 1016.9 1016.5 5.0
27/07:30am 21.5 23.9 20.1 92 0.9 NNW 7 9 4 5 1016.7 1016.3 5.0
27/07:00am 21.2 23.8 20.0 93 0.8 N 6 7 3 4 1016.5 1016.1 5.0
27/06:30am 20.7 23.0 19.5 93 0.8 NW 6 7 3 4 1016.0 1015.7 4.8
27/06:00am 20.3 21.9 19.1 93 0.8 WNW 9 15 5 8 1015.8 1015.5 4.8
27/05:30am 20.2 21.7 18.9 92 0.8 WNW 9 15 5 8 1015.7 1015.4 4.8
27/05:00am 20.6 22.3 19.3 92 0.8 NNW 9 13 5 7 1015.5 1015.2 4.8
27/04:30am 20.8 22.2 19.6 93 0.8 NNW 11 13 6 7 1015.5 1015.2 4.8
27/04:00am 21.0 22.2 19.8 93 0.8 N 13 15 7 8 1015.4 1015.1 4.8
27/03:30am 20.8 23.0 19.6 93 0.8 WNW 7 9 4 5 1015.6 1015.3 4.8
27/03:00am 20.5 21.8 19.3 93 0.8 SW 11 13 6 7 1015.7 1015.4 4.8
27/02:30am 21.0 22.5 19.8 93 0.8 NNW 11 17 6 9 1015.8 1015.5 4.8
27/02:00am 21.0 22.2 19.8 93 0.8 N 13 17 7 9 1016.3 1015.9 4.8
27/01:30am 21.1 22.3 19.9 93 0.8 N 13 17 7 9 1016.3 1015.9 4.8
27/01:00am 20.9 22.4 19.7 93 0.8 NNW 11 13 6 7 1016.4 1016.0 4.8
27/12:30am 20.6 22.7 19.4 93 0.8 WSW 7 9 4 5 1017.2 1016.8 4.8
27/12:00am 21.1 23.4 19.9 93 0.8 NNW 7 11 4 6 1017.5 1017.1 4.8
 
Date/Time
EDT
Temp
°C
App
Temp
°C
Dew
Point
Rel
Hum
%
Delta-T
°C
Wind Press
QNH
hPa
Press
MSL
hPa
Rain
since 9 am
mm
Dir
 
Spd
km/h
Gust
km/h
Spd
kts
Gust
kts
26/11:30pm 21.3 21.8 20.1 93 0.8 NNE 17 20 9 11 1017.2 1016.8 4.8
26/11:00pm 21.1 22.7 19.9 93 0.8 N 11 19 6 10 1017.5 1017.1 4.8
26/10:30pm 21.2 23.7 20.2 94 0.6 NNW 7 11 4 6 1018.1 1017.7 4.8
26/10:00pm 20.4 22.0 19.2 93 0.8 WSW 9 17 5 9 1018.0 1017.6 4.8
26/09:30pm 21.0 22.6 20.0 94 0.6 NNW 11 15 6 8 1017.2 1016.8 4.8
26/09:00pm 20.6 22.3 19.4 93 0.8 NNW 9 15 5 8 1017.2 1016.8 4.8
26/08:30pm 20.9 23.1 19.7 93 0.8 NNW 7 9 4 5 1017.7 1017.3 4.8
26/08:00pm 20.9 23.2 19.9 94 0.6 NW 7 9 4 5 1017.6 1017.2 4.8
26/07:30pm 20.8 23.1 19.8 94 0.6 WNW 7 9 4 5 1017.6 1017.2 4.8
26/07:00pm 20.8 22.0 19.8 94 0.6 WSW 13 15 7 8 1017.3 1016.9 4.8
26/06:30pm 20.9 21.7 19.9 94 0.6 SW 15 19 8 10 1016.9 1016.5 4.8
26/06:00pm 20.8 21.9 19.6 93 0.8 SSW 13 17 7 9 1016.6 1016.2 4.8
26/05:30pm 20.9 22.1 19.9 94 0.6 SSW 13 15 7 8 1016.6 1016.2 4.8
26/05:00pm 20.6 21.6 19.4 93 0.8 SSW 13 17 7 9 1016.8 1016.4 4.6
26/04:30pm 21.0 22.5 19.8 93 0.8 SSW 11 15 6 8 1016.8 1016.4 4.6
26/04:00pm 20.4 21.3 19.2 93 0.8 SW 13 19 7 10 1017.1 1016.7 4.4
26/03:30pm 20.1 19.7 18.9 93 0.8 S 19 20 10 11 1017.0 1016.6 4.2
26/03:00pm 19.9 19.4 18.6 92 0.8 SSW 19 24 10 13 1017.2 1016.8 3.0
26/02:30pm 20.0 20.3 18.7 92 0.8 S 15 19 8 10 1017.1 1016.7 1.6
26/02:00pm 20.1 19.6 18.6 91 0.9 S 19 20 10 11 1017.2 1016.8 0.4
26/01:30pm 20.4 19.3 18.7 90 1.1 S 22 33 12 18 1017.1 1016.7 0.2
26/01:00pm 21.3 20.5 18.5 84 1.8 S 20 26 11 14 1017.3 1016.9 0.0
26/12:30pm 22.7 22.1 19.7 83 1.9 S 22 28 12 15 1017.5 1017.1 0.0
26/12:00pm 23.8 23.8 18.9 74 3.1 S 17 24 9 13 1017.6 1017.2 0.0
26/11:30am 24.9 26.9 19.9 74 3.2 SSE 9 15 5 8 1017.8 1017.4 0.0
26/11:00am 25.3 27.0 21.0 77 2.8 S 13 15 7 8 1017.9 1017.5 0.0
26/10:30am 23.4 24.0 20.3 83 2.0 S 17 20 9 11 1018.0 1017.6 0.0
26/10:00am 23.9 25.7 20.4 81 2.3 SSW 11 15 6 8 1018.1 1017.7 0.0
26/09:30am 23.5 24.6 20.4 83 2.0 SW 15 20 8 11 1018.1 1017.7 0.0
26/09:00am 23.2 24.5 20.2 83 1.9 SW 13 20 7 11 1018.1 1017.7 0.0
26/08:30am 22.1 22.0 20.0 88 1.4 SW 20 28 11 15 1018.0 1017.6 0.0
26/08:00am 21.7 22.3 20.2 91 1.0 SW 17 24 9 13 1017.9 1017.5 0.0
26/07:30am 21.3 21.7 19.8 91 1.0 WSW 17 22 9 12 1017.8 1017.4 0.0
26/07:00am 20.9 21.2 19.6 92 0.8 WSW 17 22 9 12 1017.5 1017.1 0.0
26/06:30am 20.8 20.7 19.5 92 0.8 SW 19 28 10 15 1017.2 1016.8 0.0
26/06:00am 20.7 20.3 19.4 92 0.8 SW 20 26 11 14 1017.0 1016.6 0.0
26/05:30am 20.8 20.4 19.3 91 1.0 SW 20 26 11 14 1016.8 1016.4 0.0
26/05:00am 20.8 20.0 19.3 91 1.0 SW 22 28 12 15 1016.4 1016.0 0.0
26/04:30am 21.0 19.7 19.1 89 1.2 SW 24 33 13 18 1016.1 1015.8 0.0
26/04:00am 20.8 19.0 18.7 88 1.3 SW 26 32 14 17 1015.9 1015.6 0.0
26/03:30am 20.9 19.4 18.5 86 1.5 SW 24 32 13 17 1016.3 1015.9 0.0
26/03:00am 21.1 19.8 18.1 83 1.9 SW 22 30 12 16 1016.5 1016.1 0.0
26/02:30am 21.1 20.1 17.9 82 2.0 SW 20 30 11 16 1016.7 1016.3 0.0
26/02:00am 20.7 19.7 17.9 84 1.7 SW 20 26 11 14 1016.9 1016.5 0.0
26/01:30am 20.9 20.5 18.1 84 1.7 SW 17 20 9 11 1017.5 1017.1 0.0
26/01:00am 21.2 21.2 18.2 83 1.9 SW 15 19 8 10 1017.7 1017.3 0.0
26/12:30am 21.4 21.1 18.2 82 2.0 WSW 17 20 9 11 1018.3 1017.9 0.0
26/12:00am 21.5 21.2 18.3 82 2.0 WSW 17 20 9 11 1018.3 1017.9 0.0
 
Date/Time
EDT
Temp
°C
App
Temp
°C
Dew
Point
Rel
Hum
%
Delta-T
°C
Wind Press
QNH
hPa
Press
MSL
hPa
Rain
since 9 am
mm
Dir
 
Spd
km/h
Gust
km/h
Spd
kts
Gust
kts
25/11:30pm 21.7 21.5 18.5 82 2.0 SW 17 20 9 11 1018.1 1017.7 0.0
25/11:00pm 21.8 21.6 18.6 82 2.0 SW 17 22 9 12 1018.3 1017.9 0.0
25/10:30pm 22.0 21.9 18.8 82 2.0 SW 17 20 9 11 1018.3 1017.9 0.0

Other Formats:

Comma delimited format used in spreadsheet applications
http://www.bom.gov.au/fwo/IDN60801/IDN60801.94599.axf

JavaScript Object Notation format (JSON) in row-major order
http://www.bom.gov.au/fwo/IDN60801/IDN60801.94599.json